Impacts TAF Board
For situational awareness. Not to be used for flight planning purposes.
IDs:

KTOI - Troy Muni, AL, US

Issued at 1615 UTC 07 Dec 2021
Updated at 1732 UTC 07 Dec 2021
Potential Impact None Slight Moderate High
Time1653Z 07/18Z 07/19Z 07/20Z 07/21Z 07/22Z 07/23Z 08/00Z 08/01Z 08/02Z 08/03Z 08/04Z 08/05Z 08/06Z>>
Type OBS PRVL PRVL PRVL PRVL PRVL
  [TEMP]  
PRVL
  [TEMP]  
PRVL
  [TEMP]  
PRVL
  [TEMP]  
PRVL PRVL PRVL PRVL PRVL
VIS 10 >6 >6 >6 >6 >6
  [6]  
>6
  [6]  
>6
  [6]  
>6
  [6]  
6 6 6 6 5
CIG 9 9 9 9 16 16
  [16]  
16
  [16]  
16
  [16]  
16
  [16]  
10 10 8 8 6
Cover OVC OVC OVC OVC OVC OVC
  [OVC]  
OVC
  [OVC]  
OVC
  [OVC]  
OVC
  [OVC]  
OVC OVC OVC OVC OVC
FltCat IFR IFR IFR IFR MVFR MVFR
  [MVFR]  
MVFR
  [MVFR]  
MVFR
  [MVFR]  
MVFR
  [MVFR]  
MVFR MVFR IFR IFR IFR
WX -- VCSH VCSH VCSH VCSH VCSH
  [-SHRA BR]  
VCSH
  [-SHRA BR]  
VCSH
  [-SHRA BR]  
VCSH
  [-SHRA BR]  
-SHRA BR -SHRA BR -SHRA BR -SHRA BR -SHRA BR
WDir 100 10 10 10 VRB VRB
[VRB]
VRB
[VRB]
VRB
[VRB]
VRB
[VRB]
VRB VRB VRB VRB VRB
WSpd 3 6 6 6 3 3
  [3]  
3
  [3]  
3
  [3]  
3
  [3]  
0 0 0 0 0
WGst -- -- -- -- -- --
  [--]  
--
  [--]  
--
  [--]  
--
  [--]  
-- -- -- -- --
WSHgt -- -- -- -- -- --
[--]
--
[--]
--
[--]
--
[--]
-- -- -- -- --
WSDir -- -- -- -- -- --
[--]
--
[--]
--
[--]
--
[--]
-- -- -- -- --
WSSpd -- -- -- -- -- --
[--]
--
[--]
--
[--]
--
[--]
-- -- -- -- --
Raw TAF
KTOI 071615Z 0716/0812 01006KT P6SM VCSH OVC009
  FM072100 VRB03KT P6SM VCSH OVC016
  TEMPO 0722/0802 6SM -SHRA BR
  FM080200 00000KT 6SM -SHRA BR OVC010
  FM080400 00000KT 6SM -SHRA BR OVC008
  FM080600 00000KT 5SM -SHRA BR OVC006


Raw METAR
KTOI 071653Z AUTO 10003KT 10SM OVC009 13/08 A3016 RMK AO2 SLP211 T01280083
KTOI 071609Z AUTO VRB03KT 10SM OVC009 12/08 A3017 RMK AO2 T01220078
KTOI 071553Z AUTO 08003KT 10SM OVC010 11/08 A3017 RMK AO2 SLP216 T01110078
KTOI 071540Z AUTO 07004KT 10SM OVC010 11/07 A3017 RMK AO2 T01110072
KTOI 071453Z AUTO 05005KT 10SM OVC008 10/07 A3016 RMK AO2 SLP211 T01000067 53004
KTOI 071434Z AUTO 02004KT 10SM OVC008 10/06 A3016 RMK AO2 T01000061

METAR Board
Radar Display
Forecast Discussion
For situational awareness. Not to be used for flight planning purposes.